Terminal Aerodrome Forecast
Issued by NWS Flagstaff, AZ

Home | Current Version | Previous Version | Text Only | Print | Product List | Glossary On
Versions: 1 2 3 4 5 6 7 8 9 10 11 12 13 14 15 16 17 18 19 20
000
FTUS45 KFGZ 171400 AAA
TAFFLG
TAF AMD
KFLG 171420Z 1714/1812 VRB04KT P6SM VCSH SCT040 OVC060
      TEMPO 1714/1717 5SM -SHRA BKN040
     FM171700 VRB06KT 5SM -SHRA BKN025 OVC040
      TEMPO 1719/1723 3SM TSRA OVC020CB
     FM180300 VRB05KT P6SM VCSH SCT025 OVC080=

USA.gov is the U.S. government's official web portal to all federal, state and local government web resources and services.